Time;durP1;ratioP1;P1;durP2;ratioP2;P2;SDS_P1;SDS_P2;PMS_P1;PMS_P2;Temp;Humidity;BMP_temperature;BMP_pressure;BME280_temperature;BME280_humidity;BME280_pressure;Samples;Min_cycle;Max_cycle;Signal;HPM_P1;HPM_P2
2023/09/07 00:37:42;;;;;;;4.28;1.25;;;;;;;12.03;61.38;100033.00;5261124;23;20054;-96
2023/09/07 00:43:04;;;;;;;1.65;1.27;;;;;;;11.86;61.37;99996.06;5091091;23;20062;-91
2023/09/07 01:57:29;;;;;;;18.80;2.35;;;;;;;11.83;66.30;100106.22;4930573;23;20069;-94
2023/09/07 01:59:55;;;;;;;28.23;3.30;;;;;;;11.70;66.22;100082.34;5041728;23;20171;-92
2023/09/07 02:02:50;;;;;;;15.00;2.63;;;;;;;11.84;66.48;100116.06;4929761;23;20118;-93
2023/09/07 02:05:17;;;;;;;4.18;2.22;;;;;;;11.80;66.89;100122.44;4912661;29;20039;-93
2023/09/07 02:07:50;;;;;;;7.03;2.38;;;;;;;11.63;67.50;100093.69;4920530;23;20040;-93
2023/09/07 02:10:16;;;;;;;5.03;2.63;;;;;;;11.81;67.38;100124.06;4918643;29;20039;-92
2023/09/07 02:12:43;;;;;;;6.10;2.42;;;;;;;11.69;67.75;100127.28;4962887;23;20054;-91
2023/09/07 02:15:10;;;;;;;14.90;3.05;;;;;;;11.37;68.06;100074.13;4944327;28;20049;-92
2023/09/07 02:17:39;;;;;;;6.25;2.38;;;;;;;11.53;68.28;100093.88;4944685;29;20047;-91
2023/09/07 02:20:21;;;;;;;5.82;2.30;;;;;;;11.67;68.02;100141.25;4958573;23;20054;-94
2023/09/07 02:22:48;;;;;;;8.07;2.40;;;;;;;11.43;68.17;100105.00;4953244;28;20042;-96
2023/09/07 02:25:34;;;;;;;11.63;2.90;;;;;;;11.65;68.79;100132.53;4952126;28;20038;-94
2023/09/07 02:28:21;;;;;;;13.13;2.80;;;;;;;11.15;68.93;100066.56;4896709;29;20061;-92
2023/09/07 02:30:52;;;;;;;5.90;2.20;;;;;;;11.29;68.98;100103.03;4878057;29;20534;-94
2023/09/07 02:33:31;;;;;;;4.63;2.10;;;;;;;11.57;68.72;100137.88;5136770;23;20057;-94
2023/09/07 02:36:53;;;;;;;6.57;1.98;;;;;;;11.58;68.93;100143.06;4923572;29;20474;-94
2023/09/07 02:39:19;;;;;;;4.25;1.85;;;;;;;11.01;69.00;100058.28;5033688;23;20076;-91
2023/09/07 02:41:47;;;;;;;7.78;1.90;;;;;;;11.12;69.01;100074.53;4950294;28;20057;-95
2023/09/07 02:44:25;;;;;;;3.42;2.22;;;;;;;10.96;68.88;100044.72;4949941;28;20030;-93
2023/09/07 02:47:17;;;;;;;5.90;1.92;;;;;;;11.56;69.19;100144.50;4947998;28;20049;-92
2023/09/07 02:49:44;;;;;;;5.10;1.90;;;;;;;11.28;69.02;100114.25;4953531;23;20059;-92
2023/09/07 02:52:20;;;;;;;5.57;1.83;;;;;;;11.50;68.87;100157.44;4919043;29;20043;-93
2023/09/07 02:54:46;;;;;;;5.55;2.13;;;;;;;11.28;69.02;100128.75;4932217;28;20195;-92
2023/09/07 02:57:13;;;;;;;4.00;2.00;;;;;;;11.27;69.08;100138.06;4948420;28;20239;-95
2023/09/07 02:59:40;;;;;;;2.63;1.63;;;;;;;11.24;69.37;100127.72;4949899;28;20267;-93
2023/09/07 03:02:13;;;;;;;43.65;2.70;;;;;;;10.92;69.18;100078.41;4943913;23;20247;-95
2023/09/07 03:05:06;;;;;;;8.15;2.00;;;;;;;11.43;69.25;100157.81;4958342;23;20059;-92
2023/09/07 03:08:35;;;;;;;6.07;2.03;;;;;;;11.44;69.48;100159.44;4975821;23;20053;-94
2023/09/07 03:11:07;;;;;;;6.78;1.85;;;;;;;10.87;69.25;100073.03;4936262;28;20134;-94
2023/09/07 03:13:49;;;;;;;3.60;1.90;;;;;;;10.89;69.17;100090.75;4952270;28;20035;-92
2023/09/07 03:16:28;;;;;;;8.15;2.15;;;;;;;11.35;69.63;100177.63;5026505;23;20048;31
2023/09/07 03:19:11;;;;;;;3.50;1.80;;;;;;;11.31;69.61;100182.09;4896655;29;19927;-93
2023/09/07 03:22:35;;;;;;;3.70;1.80;;;;;;;11.39;69.66;100177.84;4913532;29;20063;-92
2023/09/07 03:25:29;;;;;;;6.80;2.08;;;;;;;11.37;69.62;100183.66;4921395;29;20152;-94
2023/09/07 03:28:06;;;;;;;8.25;2.05;;;;;;;11.18;70.10;100152.72;4909004;29;20077;-93
2023/09/07 03:30:41;;;;;;;6.10;2.15;;;;;;;10.73;69.86;100086.63;4916042;29;20112;-90
2023/09/07 03:33:15;;;;;;;4.35;1.80;;;;;;;10.79;69.92;100097.22;4880891;29;20047;-93
2023/09/07 03:35:43;;;;;;;13.65;2.55;;;;;;;11.02;69.88;100142.00;4897841;29;20024;-91
2023/09/07 03:38:31;;;;;;;11.80;3.00;;;;;;;11.03;70.42;100148.31;4918046;29;20054;-91
2023/09/07 03:40:58;;;;;;;3.42;1.80;;;;;;;11.18;69.87;100177.34;4914384;29;20063;-95
2023/09/07 03:43:28;;;;;;;3.85;1.70;;;;;;;10.61;69.86;100105.38;4928346;23;20032;-92
2023/09/07 03:46:48;;;;;;;8.88;2.15;;;;;;;11.31;70.31;100197.69;4967098;23;20042;-93
2023/09/07 03:53:01;;;;;;;5.30;1.90;;;;;;;11.33;69.91;100210.00;5066120;23;20059;-93
2023/09/07 03:56:23;;;;;;;5.53;1.65;;;;;;;10.93;69.10;100127.38;4904834;29;20065;-94
2023/09/07 04:09:50;;;;;;;10.40;2.10;;;;;;;11.61;68.51;100205.44;5578410;23;20055;-90
2023/09/07 04:12:16;;;;;;;6.20;1.63;;;;;;;11.82;67.59;100219.66;4944014;28;20022;-87
2023/09/07 04:14:48;;;;;;;5.73;1.80;;;;;;;11.60;67.79;100213.97;4926175;28;20057;-88
2023/09/07 04:17:14;;;;;;;6.10;1.92;;;;;;;11.64;67.15;100215.00;4969985;28;20326;-86
2023/09/07 04:19:41;;;;;;;7.07;2.13;;;;;;;11.45;67.42;100180.22;4954446;28;20039;-88
2023/09/07 04:22:07;;;;;;;9.50;1.95;;;;;;;11.77;68.19;100212.31;4966276;28;20047;-90
2023/09/07 04:24:54;;;;;;;5.90;1.85;;;;;;;11.62;69.34;100184.34;4941082;28;20018;-90
2023/09/07 04:27:21;;;;;;;6.55;1.88;;;;;;;11.55;67.47;100175.69;4961112;28;20131;-88
2023/09/07 04:30:04;;;;;;;8.65;2.30;;;;;;;11.97;66.89;100235.03;4972006;28;20043;-90
2023/09/07 04:36:17;;;;;;;5.68;2.13;;;;;;;12.40;65.68;100249.34;4936822;29;20051;-91
2023/09/07 04:38:53;;;;;;;4.40;1.75;;;;;;;12.24;64.52;100248.00;4916198;29;20048;-93
2023/09/07 04:41:20;;;;;;;4.05;1.75;;;;;;;12.02;64.10;100232.22;4931505;29;20111;-89
2023/09/07 04:43:47;;;;;;;7.18;1.75;;;;;;;11.65;64.99;100175.53;4917740;29;20021;-91
2023/09/07 04:46:14;;;;;;;10.40;2.00;;;;;;;11.95;65.14;100218.91;4915361;29;20052;-90
2023/09/07 04:48:41;;;;;;;6.88;1.77;;;;;;;12.20;65.47;100260.69;4917464;29;20039;-88
2023/09/07 04:51:34;;;;;;;4.80;1.77;;;;;;;12.07;64.52;100270.50;4917900;29;20072;-89
2023/09/07 04:54:05;;;;;;;2.97;1.45;;;;;;;11.91;63.83;100250.75;4917834;29;20036;-90
2023/09/07 04:56:32;;;;;;;12.15;2.00;;;;;;;11.69;64.99;100223.16;4905990;29;20064;-90
2023/09/07 04:58:58;;;;;;;7.32;1.77;;;;;;;12.06;64.80;100259.84;4931788;29;20040;-91
2023/09/07 05:02:23;;;;;;;7.13;2.03;;;;;;;12.19;65.19;100268.09;4911014;29;20060;-88
2023/09/07 05:05:15;;;;;;;13.73;1.88;;;;;;;12.30;63.83;100271.47;4919216;29;20052;-88
2023/09/07 05:07:41;;;;;;;8.80;2.05;;;;;;;12.07;63.36;100247.75;4926342;29;20087;-89
2023/09/07 05:10:12;;;;;;;4.65;1.50;;;;;;;12.06;63.49;100246.13;4946035;29;20277;-90
2023/09/07 05:12:40;;;;;;;14.90;2.05;;;;;;;12.23;64.12;100268.31;4949933;29;20047;-90
2023/09/07 05:15:14;;;;;;;4.38;1.50;;;;;;;11.91;63.67;100231.56;4937016;29;20019;-92
2023/09/07 05:17:45;;;;;;;6.97;1.83;;;;;;;11.83;64.24;100202.09;4944721;29;20046;-93
2023/09/07 05:20:11;;;;;;;8.02;1.38;;;;;;;12.03;63.27;100238.53;4918166;29;20036;-90
2023/09/07 05:23:39;;;;;;;2.03;1.50;;;;;;;12.36;63.14;100264.78;4965632;29;20474;-91
2023/09/07 05:26:05;;;;;;;11.13;1.90;;;;;;;12.24;63.10;100248.00;4953183;29;20520;-87
2023/09/07 05:28:34;;;;;;;3.75;1.70;;;;;;;12.43;63.14;100287.16;4953870;29;20051;-89
2023/09/07 05:31:59;;;;;;;14.93;1.60;;;;;;;11.84;63.08;100178.25;4961559;29;20086;-91
2023/09/07 05:34:27;;;;;;;6.25;1.63;;;;;;;12.42;62.94;100281.97;4955483;29;20039;-88
2023/09/07 05:36:54;;;;;;;7.18;1.50;;;;;;;11.94;63.52;100205.50;4914740;29;20017;-88
2023/09/07 05:39:20;;;;;;;7.18;1.70;;;;;;;12.01;62.38;100199.63;4960659;28;20046;-90
2023/09/07 05:41:49;;;;;;;12.73;1.90;;;;;;;12.35;62.98;100263.19;4940494;29;20054;-91
2023/09/07 05:44:15;;;;;;;7.40;1.73;;;;;;;12.41;62.87;100272.91;4965869;29;20034;-92
2023/09/07 05:46:45;;;;;;;14.00;1.98;;;;;;;12.43;62.82;100246.00;4935034;29;20026;-91
2023/09/07 05:49:17;;;;;;;3.97;1.65;;;;;;;12.80;62.85;100279.88;4934648;29;20103;-93
2023/09/07 05:51:43;;;;;;;10.77;1.80;;;;;;;12.59;61.46;100265.75;4930608;29;20051;-88
2023/09/07 05:54:09;;;;;;;4.47;1.58;;;;;;;12.82;63.39;100263.94;4918262;29;20044;-93
2023/09/07 05:56:35;;;;;;;8.38;1.95;;;;;;;12.99;64.14;100284.47;4917235;29;20051;-92
2023/09/07 05:59:01;;;;;;;17.35;2.35;;;;;;;12.91;61.44;100256.63;4919972;29;20107;-95
2023/09/07 06:01:27;;;;;;;14.13;1.98;;;;;;;13.04;61.04;100276.94;4921086;29;20024;-96
2023/09/07 06:03:54;;;;;;;18.27;2.33;;;;;;;13.29;60.21;100280.31;4915261;29;20044;-96
2023/09/07 06:06:23;;;;;;;9.85;1.67;;;;;;;13.27;60.89;100252.31;4936863;29;20112;-93
2023/09/07 06:08:50;;;;;;;17.23;1.98;;;;;;;13.43;59.39;100261.06;5015116;23;20051;-94
2023/09/07 06:11:26;;;;;;;15.07;2.22;;;;;;;13.22;59.12;100266.97;4934282;29;20468;-91
2023/09/07 06:13:52;;;;;;;8.68;2.00;;;;;;;13.32;60.66;100277.75;4954362;28;20049;-94
2023/09/07 06:16:19;;;;;;;8.73;2.00;;;;;;;13.11;61.28;100246.31;4952791;28;20043;-91
2023/09/07 06:18:46;;;;;;;6.60;1.92;;;;;;;13.73;61.92;100309.81;4954336;28;20292;-91
2023/09/07 06:21:12;;;;;;;7.88;2.05;;;;;;;13.64;61.20;100292.41;4928972;29;20055;-92
2023/09/07 06:24:06;;;;;;;11.45;2.45;;;;;;;14.10;60.55;100311.44;4909909;29;20159;-94
2023/09/07 06:27:23;;;;;;;8.65;1.73;;;;;;;14.26;56.72;100281.59;4925424;29;20043;-91
2023/09/07 06:29:52;;;;;;;7.30;2.10;;;;;;;14.11;57.47;100273.75;4911929;29;20118;-88
2023/09/07 06:32:19;;;;;;;19.90;3.10;;;;;;;13.80;56.76;100270.91;4909938;29;20060;-90
2023/09/07 06:35:11;;;;;;;11.90;1.73;;;;;;;14.05;56.88;100307.97;4894352;29;20044;-89
2023/09/07 06:37:41;;;;;;;14.73;2.55;;;;;;;13.16;57.90;100225.06;4997058;23;20038;-92
2023/09/07 06:40:13;;;;;;;15.32;1.73;;;;;;;13.60;57.79;100272.19;4980445;28;20134;-91
2023/09/07 06:42:39;;;;;;;30.58;3.20;;;;;;;13.57;57.99;100267.31;4975355;28;20158;-93
2023/09/07 06:45:13;;;;;;;14.02;1.98;;;;;;;13.56;57.92;100250.03;4972980;23;20053;-91
2023/09/07 06:48:14;;;;;;;7.72;1.98;;;;;;;14.01;56.48;100326.22;4967260;28;20106;-90
2023/09/07 06:51:11;;;;;;;10.02;2.33;;;;;;;13.96;57.66;100329.09;4981778;23;20050;-89
2023/09/07 06:54:03;;;;;;;;;;;;;;;14.08;57.82;100321.09;4989293;28;20117;-92
2023/09/07 06:56:48;;;;;;;19.02;2.72;;;;;;;13.32;57.33;100227.50;4972118;28;19929;-90
2023/09/07 06:59:20;;;;;;;9.05;1.80;;;;;;;13.70;57.16;100293.94;4948968;28;20030;-90
2023/09/07 07:02:17;;;;;;;12.30;2.35;;;;;;;14.03;57.41;100323.97;4962013;28;20072;-89
2023/09/07 07:05:49;;;;;;;9.30;2.63;;;;;;;14.09;57.96;100331.78;4994348;28;20073;-90
2023/09/07 07:08:56;;;;;;;5.93;2.08;;;;;;;14.28;57.61;100320.59;4909991;29;20071;-89
2023/09/07 07:12:03;;;;;;;6.63;2.42;;;;;;;14.48;57.14;100322.03;4917104;29;20078;-90
2023/09/07 07:14:31;;;;;;;7.72;2.20;;;;;;;14.53;55.40;100332.13;4880523;29;20077;-90
2023/09/07 07:17:01;;;;;;;10.43;2.13;;;;;;;14.52;55.29;100314.78;4899878;29;20044;-90
2023/09/07 07:19:31;;;;;;;13.88;2.80;;;;;;;15.22;55.81;100329.69;4903829;29;20463;-86
2023/09/07 07:22:03;;;;;;;10.32;2.10;;;;;;;15.46;53.95;100293.47;4892805;29;20040;-87
2023/09/07 07:24:40;;;;;;;13.68;2.28;;;;;;;15.90;51.30;100343.16;4881536;29;20052;-88
2023/09/07 07:27:10;;;;;;;3.40;1.77;;;;;;;15.38;51.39;100323.75;4886259;29;20051;-92
2023/09/07 07:29:37;;;;;;;7.97;2.30;;;;;;;15.62;54.14;100310.31;4885356;29;20055;-88
2023/09/07 07:32:32;;;;;;;10.45;1.80;;;;;;;16.08;51.78;100335.69;4897061;29;20525;-86
2023/09/07 07:35:20;;;;;;;16.33;2.60;;;;;;;15.77;48.12;100272.44;4904100;29;20029;-89
2023/09/07 07:37:47;;;;;;;13.38;2.70;;;;;;;16.11;49.50;100338.59;4897745;29;20569;-86
2023/09/07 07:40:13;;;;;;;11.90;2.22;;;;;;;15.90;52.36;100318.34;4875458;29;20952;-90
2023/09/07 07:42:41;;;;;;;12.82;2.42;;;;;;;15.69;49.80;100332.75;4877824;29;20075;-89
2023/09/07 07:45:07;;;;;;;;;;;;;;;15.91;50.44;100336.50;4939489;28;20050;-93
2023/09/07 07:47:42;;;;;;;12.50;2.13;;;;;;;16.18;51.08;100335.34;4938924;28;19921;-88
2023/09/07 07:50:10;;;;;;;9.60;2.30;;;;;;;16.54;51.02;100321.19;4952310;28;20428;-90
2023/09/07 07:52:39;;;;;;;5.32;2.00;;;;;;;16.97;48.68;100300.94;4961741;29;20055;-91
2023/09/07 07:55:20;;;;;;;7.75;2.72;;;;;;;17.36;48.31;100318.31;4937876;29;20043;-90
2023/09/07 07:57:47;;;;;;;11.55;1.95;;;;;;;17.69;46.91;100331.44;4981268;28;20050;-86
2023/09/07 08:00:15;;;;;;;23.33;2.25;;;;;;;17.33;46.26;100313.44;4919555;28;20047;-90
2023/09/07 08:02:49;;;;;;;16.90;2.95;;;;;;;17.37;46.23;100319.91;4964735;28;20043;-88
2023/09/07 08:05:17;;;;;;;14.43;2.22;;;;;;;17.37;46.42;100339.25;4981132;28;20039;-90
2023/09/07 08:07:43;;;;;;;6.03;1.83;;;;;;;16.82;44.55;100345.66;4977236;28;20050;-87
2023/09/07 08:10:10;;;;;;;7.93;2.28;;;;;;;16.66;47.69;100326.84;4966767;28;20357;-91
2023/09/07 08:12:39;;;;;;;6.88;2.28;;;;;;;16.85;45.68;100323.75;5001136;28;20137;-93
2023/09/07 08:15:05;;;;;;;24.98;2.40;;;;;;;16.90;45.77;100319.97;4984346;28;20057;-87
2023/09/07 08:17:33;;;;;;;12.63;2.60;;;;;;;17.31;47.29;100305.47;5001173;28;20046;-89
2023/09/07 08:20:25;;;;;;;11.95;2.25;;;;;;;17.59;45.44;100319.63;4984010;28;20134;-87
2023/09/07 08:23:16;;;;;;;29.63;3.97;;;;;;;18.29;45.11;100328.19;4922334;29;20494;-89
2023/09/07 08:25:46;;;;;;;15.68;2.40;;;;;;;18.29;42.67;100316.31;4891784;29;20051;-91
2023/09/07 08:28:15;;;;;;;85.97;5.18;;;;;;;17.75;42.87;100302.44;4925350;29;20059;-85
2023/09/07 08:30:42;;;;;;;13.57;2.67;;;;;;;17.06;43.97;100276.84;4926050;29;20201;-89
2023/09/07 08:33:08;;;;;;;8.77;2.22;;;;;;;17.10;42.53;100333.03;4907632;29;20044;-89
2023/09/07 08:35:35;;;;;;;8.25;2.08;;;;;;;16.59;44.43;100323.78;4893772;29;20058;-86
2023/09/07 08:38:08;;;;;;;12.88;2.17;;;;;;;16.72;45.09;100299.03;4907709;29;20048;-91
2023/09/07 08:40:36;;;;;;;19.63;3.05;;;;;;;16.90;44.47;100301.44;4910393;29;20052;-91
2023/09/07 08:43:06;;;;;;;24.00;2.55;;;;;;;17.17;46.05;100313.19;4923982;29;20067;-91
2023/09/07 08:45:57;;;;;;;6.78;2.58;;;;;;;17.35;44.07;100311.97;4912588;29;20049;-86
2023/09/07 08:48:59;;;;;;;10.27;2.72;;;;;;;17.65;43.61;100306.41;4918236;29;20123;-86
2023/09/07 08:51:32;;;;;;;37.90;3.78;;;;;;;17.52;43.63;100318.53;4870179;29;20094;-89
2023/09/07 08:54:02;;;;;;;12.15;3.67;;;;;;;17.46;43.81;100292.22;4883167;29;20053;-86
2023/09/07 08:56:30;;;;;;;12.52;2.75;;;;;;;17.39;43.60;100281.69;4892158;29;20053;-87
2023/09/07 08:58:58;;;;;;;10.07;3.03;;;;;;;17.37;45.80;100270.16;4890433;29;20056;-93
2023/09/07 09:01:31;;;;;;;13.32;2.80;;;;;;;17.89;42.75;100308.53;4942918;29;20068;-93
2023/09/07 09:04:07;;;;;;;5.60;2.10;;;;;;;17.67;41.47;100270.13;4934575;29;20151;-88
2023/09/07 09:09:23;;;;;;;8.35;2.20;;;;;;;17.59;43.40;100233.09;4945346;29;20051;-91
2023/09/07 09:11:51;;;;;;;13.23;3.15;;;;;;;18.21;43.93;100270.13;4944547;29;20048;-86
2023/09/07 09:14:31;;;;;;;13.10;1.80;;;;;;;18.44;42.91;100274.16;4895100;29;20059;-88
2023/09/07 09:17:00;;;;;;;14.40;2.65;;;;;;;18.98;42.19;100304.50;4932919;29;20035;-90
2023/09/07 09:19:36;;;;;;;9.35;2.10;;;;;;;18.37;42.23;100301.56;4944930;29;20055;-91
2023/09/07 09:22:03;;;;;;;10.07;1.90;;;;;;;17.79;38.70;100323.56;4914816;29;20039;-88
2023/09/07 09:24:44;;;;;;;10.13;2.00;;;;;;;17.15;39.74;100260.19;4913869;29;20099;-88
2023/09/07 09:27:41;;;;;;;11.88;1.90;;;;;;;17.16;41.76;100280.38;4946244;29;20043;-91
2023/09/07 09:30:21;;;;;;;12.25;1.73;;;;;;;17.88;41.61;100303.31;4923819;29;20046;-89
2023/09/07 09:36:00;;;;;;;16.85;2.35;;;;;;;17.49;39.27;100234.31;4914654;29;20106;-87
2023/09/07 09:38:53;;;;;;;12.65;2.00;;;;;;;18.02;38.65;100273.44;4904291;29;20059;-92
2023/09/07 09:41:49;;;;;;;11.43;2.28;;;;;;;17.84;37.12;100289.34;4954240;29;20051;-93
2023/09/07 09:44:55;;;;;;;9.48;2.10;;;;;;;17.34;37.00;100266.09;4946849;29;20043;-91
2023/09/07 09:47:25;;;;;;;10.23;2.25;;;;;;;17.21;38.77;100245.06;4949753;29;20130;-88
2023/09/07 09:50:06;;;;;;;56.65;4.00;;;;;;;17.64;40.65;100296.47;4959001;29;20051;-90
2023/09/07 09:52:40;;;;;;;12.82;2.25;;;;;;;17.50;37.72;100266.31;4962425;29;20055;-89
2023/09/07 09:55:22;;;;;;;19.67;2.42;;;;;;;18.28;38.89;100298.09;4969620;29;20027;-94
2023/09/07 09:57:57;;;;;;;10.25;1.80;;;;;;;18.21;36.13;100287.59;4924000;29;20040;-86
2023/09/07 10:00:26;;;;;;;19.05;2.13;;;;;;;18.06;36.88;100253.03;4902066;29;20497;-89
2023/09/07 10:03:20;;;;;;;17.33;1.75;;;;;;;18.26;37.85;100305.94;4934377;29;20565;-88
2023/09/07 10:05:50;;;;;;;18.67;1.98;;;;;;;18.10;37.88;100307.69;4858288;29;20446;-94
2023/09/07 10:09:08;;;;;;;7.40;1.80;;;;;;;17.69;38.06;100271.41;4839383;29;20060;-88
2023/09/07 10:12:01;;;;;;;7.53;1.60;;;;;;;17.42;38.81;100305.06;4835010;29;20061;-87
2023/09/07 10:14:41;;;;;;;13.50;1.83;;;;;;;17.33;39.16;100305.16;4834705;29;20045;-92
2023/09/07 10:17:11;;;;;;;15.32;2.05;;;;;;;17.30;41.78;100261.59;4846013;29;20050;-89
2023/09/07 10:19:46;;;;;;;3.25;1.58;;;;;;;17.76;38.51;100260.63;4854327;29;20045;-90
2023/09/07 10:22:38;;;;;;;10.90;1.90;;;;;;;18.34;39.18;100302.25;4854381;29;20062;-91
2023/09/07 10:25:31;;;;;;;5.50;1.63;;;;;;;18.31;36.66;100298.22;4855510;29;20117;-94
2023/09/07 10:28:25;;;;;;;9.32;1.92;;;;;;;17.56;37.85;100242.06;4851227;29;20061;-91
2023/09/07 10:31:33;;;;;;;14.30;2.30;;;;;;;17.94;38.78;100302.78;4848688;29;20072;-93
2023/09/07 10:34:10;;;;;;;18.15;2.40;;;;;;;17.92;38.22;100290.44;4851111;29;20163;-90
2023/09/07 10:36:37;;;;;;;5.55;1.85;;;;;;;18.11;36.78;100271.38;4845402;29;20122;-91
2023/09/07 10:39:06;;;;;;;12.57;1.67;;;;;;;17.76;37.76;100271.69;4844332;29;20041;-87
2023/09/07 10:41:45;;;;;;;15.70;2.15;;;;;;;18.06;37.03;100307.56;4838033;29;20053;-94
2023/09/07 10:44:25;;;;;;;7.38;1.90;;;;;;;17.98;40.99;100258.63;4932152;29;20073;-92
2023/09/07 10:47:25;;;;;;;11.85;2.30;;;;;;;18.50;37.13;100297.69;4923180;29;20096;-92
2023/09/07 10:50:00;;;;;;;12.18;1.80;;;;;;;18.93;39.39;100276.19;4934002;29;20044;-90
2023/09/07 10:52:40;;;;;;;6.18;1.80;;;;;;;19.24;35.20;100289.50;4899908;29;20060;-87
2023/09/07 10:55:11;;;;;;;17.52;2.20;;;;;;;19.15;35.55;100263.84;4909611;29;20055;-90
2023/09/07 10:57:46;;;;;;;12.00;1.67;;;;;;;19.39;38.35;100290.75;4929291;29;20052;-90
2023/09/07 11:00:16;;;;;;;18.67;2.25;;;;;;;19.28;35.05;100279.31;4910887;29;20044;-87
2023/09/07 11:02:44;;;;;;;19.83;2.60;;;;;;;18.79;35.47;100259.91;4927683;29;20549;-86
2023/09/07 11:05:10;;;;;;;14.65;2.08;;;;;;;18.72;36.33;100295.69;4935050;29;20036;-92
2023/09/07 11:08:15;;;;;;;10.05;1.88;;;;;;;18.55;36.47;100280.84;4906837;29;20051;-88
2023/09/07 11:10:42;;;;;;;26.67;2.97;;;;;;;18.20;35.81;100260.22;4931456;29;20039;-87
2023/09/07 11:13:12;;;;;;;;;;;;;;;18.49;36.86;100289.72;4922719;29;20039;-91
2023/09/07 11:15:39;;;;;;;94.68;7.28;;;;;;;18.26;35.30;100250.56;4925432;29;19973;-90
2023/09/07 11:18:06;;;;;;;;;;;;;;;18.59;35.17;100285.72;4956718;29;20040;-89
2023/09/07 11:20:32;;;;;;;10.02;2.25;;;;;;;18.72;39.21;100252.19;4955029;29;19929;-91
2023/09/07 11:23:23;;;;;;;24.73;2.58;;;;;;;18.93;35.75;100240.97;4857444;29;20436;-89
2023/09/07 11:26:39;;;;;;;11.18;1.95;;;;;;;19.39;37.38;100263.81;4858540;29;20148;-86
2023/09/07 11:29:05;;;;;;;21.77;2.35;;;;;;;18.85;34.06;100291.00;4837167;29;20056;-91
2023/09/07 11:31:35;;;;;;;11.45;1.83;;;;;;;18.55;34.30;100277.28;4862123;29;20045;-89
2023/09/07 11:34:25;;;;;;;12.10;1.92;;;;;;;18.42;35.32;100278.41;4851175;29;20066;-90
2023/09/07 11:36:52;;;;;;;23.42;2.35;;;;;;;18.52;36.62;100278.78;4846947;29;20049;-88
2023/09/07 11:39:18;;;;;;;31.02;3.10;;;;;;;18.33;35.58;100274.91;4864895;29;20531;-90
2023/09/07 11:41:44;;;;;;;21.17;2.83;;;;;;;18.33;35.10;100280.47;4866354;29;20057;-87
2023/09/07 11:44:11;;;;;;;16.25;2.20;;;;;;;18.40;34.33;100267.66;4857587;29;20065;-89
2023/09/07 11:46:41;;;;;;;12.32;1.80;;;;;;;18.49;34.97;100271.16;4848881;29;20685;-88
2023/09/07 11:49:09;;;;;;;26.65;2.88;;;;;;;18.31;35.38;100215.19;4861750;29;20049;-89
2023/09/07 11:51:35;;;;;;;13.57;2.92;;;;;;;18.45;34.95;100242.53;4865754;29;20046;-87
2023/09/07 11:54:02;;;;;;;28.80;3.53;;;;;;;18.77;34.91;100267.75;4847222;29;20050;-90
2023/09/07 11:56:37;;;;;;;8.82;2.50;;;;;;;18.86;34.40;100271.22;4847515;29;20046;-92
2023/09/07 11:59:03;;;;;;;9.10;2.30;;;;;;;19.13;37.21;100232.91;4854798;29;20555;-91
2023/09/07 12:01:34;;;;;;;3.40;1.67;;;;;;;19.45;35.26;100223.59;4938491;29;20047;-86
2023/09/07 12:04:00;;;;;;;10.15;2.72;;;;;;;19.56;34.54;100259.97;4950556;29;20040;-85
2023/09/07 12:06:26;;;;;;;4.93;1.70;;;;;;;19.76;36.11;100254.63;4949617;29;20036;-86
2023/09/07 12:09:00;;;;;;;10.70;2.50;;;;;;;20.05;38.66;100243.19;4918267;29;20052;-90
2023/09/07 12:11:27;;;;;;;12.32;2.17;;;;;;;19.99;34.96;100244.59;4948168;29;20048;-88
2023/09/07 12:13:55;;;;;;;21.73;2.53;;;;;;;20.02;37.92;100240.31;4930507;29;20039;-90
2023/09/07 12:16:22;;;;;;;21.75;2.55;;;;;;;20.24;33.06;100230.59;4912335;29;20071;-89
2023/09/07 12:18:48;;;;;;;22.58;2.67;;;;;;;20.44;32.37;100250.97;4948200;29;20091;-87
2023/09/07 12:21:57;;;;;;;21.80;2.50;;;;;;;20.23;35.14;100218.69;4955961;28;20052;-87
2023/09/07 12:24:36;;;;;;;10.13;2.58;;;;;;;20.03;32.54;100222.47;4951317;29;20043;-89
2023/09/07 12:27:02;;;;;;;8.82;1.83;;;;;;;19.69;32.97;100261.56;4929135;29;20039;-86
2023/09/07 12:29:28;;;;;;;7.07;1.67;;;;;;;19.29;34.13;100230.22;4945540;29;20031;-92
2023/09/07 12:31:57;;;;;;;21.83;2.50;;;;;;;19.13;33.97;100210.72;4955167;29;20052;-89
2023/09/07 12:34:26;;;;;;;17.15;2.50;;;;;;;19.34;35.62;100255.75;4913678;29;20432;-87
2023/09/07 12:36:52;;;;;;;6.82;3.78;;;;;;;19.17;34.81;100239.34;4942289;29;20050;-91
2023/09/07 12:39:24;;;;;;;17.42;2.30;;;;;;;19.23;34.21;100235.19;4929802;29;20142;-89
2023/09/07 12:41:50;;;;;;;19.60;2.50;;;;;;;19.35;34.85;100234.38;4938422;29;20071;-88
2023/09/07 12:44:20;;;;;;;10.52;2.33;;;;;;;19.43;32.51;100219.56;4926135;29;20139;-89
2023/09/07 12:46:52;;;;;;;11.35;2.10;;;;;;;19.16;33.04;100243.28;4892689;29;20046;-87
2023/09/07 12:49:18;;;;;;;23.02;3.40;;;;;;;18.85;33.37;100236.38;4941395;29;20052;-90
2023/09/07 12:51:47;;;;;;;18.77;2.50;;;;;;;18.79;33.17;100254.38;4941723;29;20050;-85
2023/09/07 12:54:15;;;;;;;18.45;2.90;;;;;;;18.73;33.30;100250.22;4877616;29;20056;-91
2023/09/07 12:56:41;;;;;;;11.70;2.40;;;;;;;18.58;33.37;100221.22;4940773;29;20048;-90
2023/09/07 12:59:08;;;;;;;24.95;2.92;;;;;;;18.57;34.19;100249.25;4926016;29;20036;-89
2023/09/07 13:01:34;;;;;;;;;;;;;;;18.46;35.25;100255.22;4942477;29;20040;-89
2023/09/07 13:04:00;;;;;;;7.60;2.30;;;;;;;18.21;34.99;100262.66;4926014;29;19922;-90
2023/09/07 13:06:52;;;;;;;12.23;2.20;;;;;;;17.75;36.51;100189.84;4926304;29;20102;-88
2023/09/07 13:09:22;;;;;;;19.98;1.98;;;;;;;17.89;34.41;100252.41;4945122;29;20056;-87
2023/09/07 13:11:49;;;;;;;13.70;2.75;;;;;;;17.80;35.27;100246.94;4926515;29;20074;-87
2023/09/07 13:14:27;;;;;;;21.85;2.58;;;;;;;17.38;34.85;100189.69;4927283;29;20055;-86
2023/09/07 13:16:55;;;;;;;13.38;2.63;;;;;;;17.59;34.85;100216.50;4952943;29;20055;-91
2023/09/07 13:19:29;;;;;;;29.02;3.78;;;;;;;17.72;35.51;100254.13;4928549;29;20046;-86
2023/09/07 13:21:58;;;;;;;13.10;2.20;;;;;;;17.65;35.66;100253.88;4941615;29;20044;-89
2023/09/07 13:24:25;;;;;;;9.30;2.10;;;;;;;17.95;39.40;100232.50;4929134;29;20063;-87
2023/09/07 13:26:52;;;;;;;14.07;2.25;;;;;;;17.77;38.36;100190.34;4946555;29;20417;-87
2023/09/07 13:29:18;;;;;;;18.80;2.47;;;;;;;18.24;37.46;100245.34;4947446;29;20043;-91
2023/09/07 13:32:08;;;;;;;54.05;3.78;;;;;;;17.95;35.51;100248.28;4932022;29;20046;-86
2023/09/07 13:34:35;;;;;;;22.67;2.20;;;;;;;17.73;37.59;100227.28;4948285;29;20071;-87
2023/09/07 13:37:02;;;;;;;19.65;2.40;;;;;;;17.98;39.99;100234.56;4951036;29;20416;-87
2023/09/07 13:39:51;;;;;;;5.40;1.70;;;;;;;17.66;35.82;100204.91;4919382;29;20063;-85
2023/09/07 13:42:45;;;;;;;10.13;1.70;;;;;;;17.84;35.59;100234.84;4954836;28;20040;-87
2023/09/07 13:45:23;;;;;;;11.45;2.13;;;;;;;17.70;35.81;100180.94;4969770;29;20051;-88
2023/09/07 13:47:51;;;;;;;13.23;2.08;;;;;;;17.89;36.69;100181.28;4952980;29;20138;-88
2023/09/07 13:50:54;;;;;;;31.65;2.88;;;;;;;18.61;34.75;100180.94;4935749;29;20050;-91
2023/09/07 13:53:51;;;;;;;8.20;1.75;;;;;;;19.09;34.93;100223.66;4953193;29;20063;-88
2023/09/07 13:56:21;;;;;;;184.52;9.15;;;;;;;19.34;35.81;100221.69;4935300;29;20027;-86
2023/09/07 13:58:55;;;;;;;13.40;2.10;;;;;;;19.65;35.81;100212.72;4965116;29;20060;-85
2023/09/07 14:01:29;;;;;;;17.48;2.13;;;;;;;19.56;34.54;100198.16;4951497;29;20043;-86
2023/09/07 14:03:55;;;;;;;9.88;1.95;;;;;;;19.13;35.30;100197.66;4931538;29;20085;-88
2023/09/07 14:06:23;;;;;;;13.18;1.88;;;;;;;18.60;34.86;100176.56;4947325;29;20055;-87
2023/09/07 14:08:53;;;;;;;10.10;1.85;;;;;;;18.45;37.20;100216.81;4909996;29;20075;-86
2023/09/07 14:11:22;;;;;;;19.55;2.05;;;;;;;18.39;36.93;100201.56;4928518;29;20043;-87
2023/09/07 14:13:51;;;;;;;12.93;2.50;;;;;;;18.08;36.06;100195.41;4928379;29;20051;-88
2023/09/07 14:16:19;;;;;;;15.63;2.30;;;;;;;18.14;39.76;100204.28;4944850;29;20099;-92
2023/09/07 14:18:45;;;;;;;15.88;2.35;;;;;;;18.10;37.18;100208.88;4931067;29;20058;-86